WetterOnline ( https://www.wetteronline.de )

Wetter aktuell Hinterzarten

Aktuelles Wetter: Feldberg/Schwarzwald (1493m)

6-stündlich | Neueste Meldungen
Ortszeit Temperatur Wetter
Mo, 15.07. 14:00 19.5° C leicht bewölkt
Mo, 15.07. 8:00 15.1° C bewölkt
Mo, 15.07. 2:00 14.4° C wolkig
So, 14.07. 20:00 14.1° C bedeckt
So, 14.07. 14:00 14.6° C wolkig
So, 14.07. 8:00 9.8° C wolkig
So, 14.07. 2:00 9.8° C wolkenlos
Sa, 13.07. 20:00 11.4° C wolkenlos
Ortszeit Temperatur Wetter
Mo, 15.07. 16:00 20.0° C wolkig
Mo, 15.07. 15:50 20.0° C wolkig
Mo, 15.07. 15:40 20.6° C wolkig
Mo, 15.07. 15:30 20.1° C wolkig
Mo, 15.07. 15:20 20.1° C wolkig
Mo, 15.07. 15:10 20.1° C leicht bewölkt
Mo, 15.07. 15:00 20.3° C wolkig
Mo, 15.07. 14:30 20.1° C bewölkt
Mo, 15.07. 14:00 19.5° C leicht bewölkt
Mo, 15.07. 13:30 18.8° C wolkig
Mo, 15.07. 13:00 18.9° C bedeckt
Ortszeit Relative Feuchte Sichtweite
Mo, 15.07. 14:00 62% 45 km
Mo, 15.07. 8:00 61% >70 km
Mo, 15.07. 2:00 55% 65 km
So, 14.07. 20:00 70% >70 km
So, 14.07. 14:00 62% 55 km
So, 14.07. 8:00 71% 60 km
So, 14.07. 2:00 67% >70 km
Sa, 13.07. 20:00 57% >70 km
Ortszeit Relative Feuchte Sichtweite
Mo, 15.07. 16:00 54% 55 km
Mo, 15.07. 15:50 54% -
Mo, 15.07. 15:40 55% -
Mo, 15.07. 15:30 57% 65 km
Mo, 15.07. 15:20 57% -
Mo, 15.07. 15:10 57% -
Mo, 15.07. 15:00 62% 45 km
Mo, 15.07. 14:30 65% 60 km
Mo, 15.07. 14:00 62% 45 km
Mo, 15.07. 13:30 60% >70 km
Mo, 15.07. 13:00 69% 40 km
Ortszeit Niederschlagsmenge Niederschlagsart
Mo, 15.07. 14:00 0.0 l/m2 in 6 Std. -
Mo, 15.07. 8:00 0.0 l/m2 in 12 Std. -
Mo, 15.07. 2:00 0.0 l/m2 in 6 Std. -
So, 14.07. 20:00 0.0 l/m2 in 12 Std. -
So, 14.07. 14:00 0.0 l/m2 in 6 Std. -
So, 14.07. 8:00 0.0 l/m2 in 12 Std. -
So, 14.07. 2:00 0.0 l/m2 in 6 Std. -
Sa, 13.07. 20:00 0.0 l/m2 in 12 Std. -
Ortszeit Niederschlagsmenge Niederschlagsart
Mo, 15.07. 16:00 0.0 l/m2 in 1 Std. -
Mo, 15.07. 15:50 keine Meldung -
Mo, 15.07. 15:40 keine Meldung -
Mo, 15.07. 15:30 0.0 l/m2 in 30 Min -
Mo, 15.07. 15:20 keine Meldung -
Mo, 15.07. 15:10 keine Meldung -
Mo, 15.07. 15:00 0.0 l/m2 in 1 Std. -
Mo, 15.07. 14:30 0.0 l/m2 in 30 Min -
Mo, 15.07. 14:00 0.0 l/m2 in 1 Std. -
Mo, 15.07. 13:30 0.0 l/m2 in 30 Min -
Mo, 15.07. 13:00 0.0 l/m2 in 1 Std. -
Ortszeit Stärke Spitze Richtung
km/h Bft. km/h Grad Sektor
Mo, 15.07. 14:00 25 4 36 200° S
Mo, 15.07. 8:00 22 4 40 180° S
Mo, 15.07. 2:00 33 5 41 220° SW
So, 14.07. 20:00 20 4 43 190° S
So, 14.07. 14:00 19 3 33 210° SW
So, 14.07. 8:00 11 2 20 200° S
So, 14.07. 2:00 14 3 22 200° S
Sa, 13.07. 20:00 14 3 29 220° SW
Ortszeit Stärke Spitze Richtung
km/h Bft. km/h Grad Sektor
Mo, 15.07. 16:00 24 4 33 200° S
Mo, 15.07. 15:50 24 4 - 200° S
Mo, 15.07. 15:40 22 4 - 200° S
Mo, 15.07. 15:30 25 4 32 200° S
Mo, 15.07. 15:20 25 4 - 200° S
Mo, 15.07. 15:10 24 4 - 200° S
Mo, 15.07. 15:00 20 4 31 200° S
Mo, 15.07. 14:30 22 4 32 210° SW
Mo, 15.07. 14:00 25 4 36 200° S
Mo, 15.07. 13:30 28 4 37 200° S
Mo, 15.07. 13:00 18 3 36 200° S
Ortszeit Untergrenze Bedeckung Gattung
total tief tief mittel hoch
Mo, 15.07. 14:00 3300 m 3/8 3/8 - - -
Mo, 15.07. 8:00 5100 m 7/8 7/8 - - -
Mo, 15.07. 2:00 2100 m 7/8 1/8 - - -
So, 14.07. 20:00 3000 m 8/8 8/8 - - -
So, 14.07. 14:00 6900 m 7/8 6/8 - - -
So, 14.07. 8:00 630 m 6/8 6/8 - - -
So, 14.07. 2:00 - 0/8 0/8 - - -
Sa, 13.07. 20:00 - 0/8 0/8 - - -
Ortszeit Bedeckungsgrad in Achtel und Wolkenuntergrenze
Mo, 15.07. 16:00 2(3000m) 5(3900m)
Mo, 15.07. 15:50 2(3000m) 5(3900m)
Mo, 15.07. 15:40 5
Mo, 15.07. 15:30 5(3600m) 6(8400m)
Mo, 15.07. 15:20 5(3600m) 6(8400m)
Mo, 15.07. 15:10 3
Mo, 15.07. 15:00 4(3000m) 5(3900m) 6(8400m)
Mo, 15.07. 14:30 7(3000m)
Mo, 15.07. 14:00 3(3300m) 3(8700m)
Mo, 15.07. 13:30 5(3300m) 7(8700m)
Mo, 15.07. 13:00 8(3300m)
Ortszeit Stationsdruck (hPa) Tendenz (hPa in 3 Std.)
Mo, 15.07. 14:00 851 0,0
Mo, 15.07. 8:00 851 + 0,3
Mo, 15.07. 2:00 852 - 0,1
So, 14.07. 20:00 851 0,0
So, 14.07. 14:00 851 + 0,4
So, 14.07. 8:00 850 + 0,4
So, 14.07. 2:00 850 0,0
Sa, 13.07. 20:00 850 0,0
Ortszeit Stationsdruck (hPa) Tendenz (hPa in 3 Std.)
Mo, 15.07. 16:00 851 - 0,4
Mo, 15.07. 15:50 851 keine Meldung
Mo, 15.07. 15:40 851 keine Meldung
Mo, 15.07. 15:30 851 - 0,3
Mo, 15.07. 15:20 851 keine Meldung
Mo, 15.07. 15:10 851 keine Meldung
Mo, 15.07. 15:00 851 - 0,3
Mo, 15.07. 14:30 851 - 0,2
Mo, 15.07. 14:00 851 0,0
Mo, 15.07. 13:30 851 0,0
Mo, 15.07. 13:00 851 - 0,1
Ortszeit Schneehöhe (cm)
Mo, 15.07. 14:00 0
Mo, 15.07. 8:00 0
Mo, 15.07. 2:00 0
So, 14.07. 20:00 0
So, 14.07. 14:00 0
So, 14.07. 8:00 0
So, 14.07. 2:00 0
Sa, 13.07. 20:00 0
Ortszeit Schneehöhe (cm)
Mo, 15.07. 16:00 0
Mo, 15.07. 15:50 0
Mo, 15.07. 15:40 -
Mo, 15.07. 15:30 0
Mo, 15.07. 15:20 0
Mo, 15.07. 15:10 -
Mo, 15.07. 15:00 0
Mo, 15.07. 14:30 0
Mo, 15.07. 14:00 0
Mo, 15.07. 13:30 0
Mo, 15.07. 13:00 0
Link zu dieser Seite / Seite empfehlen

Das Wetter in ...